sensor_id;sensor_type;location;lat;lon;timestamp;P1;durP1;ratioP1;P2;durP2;ratioP2
52542;SDS011;38449;52.696;6.186;2022-10-22T00:02:15;8.80;;;6.32;;
52542;SDS011;38449;52.696;6.186;2022-10-22T00:04:44;8.70;;;6.38;;
52542;SDS011;38449;52.696;6.186;2022-10-22T00:07:14;8.63;;;6.07;;
52542;SDS011;38449;52.696;6.186;2022-10-22T00:09:43;11.18;;;6.07;;
52542;SDS011;38449;52.696;6.186;2022-10-22T00:12:09;9.85;;;6.28;;
52542;SDS011;38449;52.696;6.186;2022-10-22T00:14:36;9.63;;;6.05;;
52542;SDS011;38449;52.696;6.186;2022-10-22T00:17:02;9.23;;;6.28;;
52542;SDS011;38449;52.696;6.186;2022-10-22T00:19:27;9.05;;;5.75;;
52542;SDS011;38449;52.696;6.186;2022-10-22T00:21:53;9.07;;;5.65;;
52542;SDS011;38449;52.696;6.186;2022-10-22T00:24:19;8.57;;;5.70;;
52542;SDS011;38449;52.696;6.186;2022-10-22T00:26:44;9.10;;;6.18;;
52542;SDS011;38449;52.696;6.186;2022-10-22T00:29:10;9.55;;;5.93;;
52542;SDS011;38449;52.696;6.186;2022-10-22T00:31:35;10.48;;;6.13;;
52542;SDS011;38449;52.696;6.186;2022-10-22T00:34:01;9.27;;;5.75;;
52542;SDS011;38449;52.696;6.186;2022-10-22T00:36:27;8.82;;;5.93;;
52542;SDS011;38449;52.696;6.186;2022-10-22T00:38:53;9.30;;;6.28;;
52542;SDS011;38449;52.696;6.186;2022-10-22T00:41:18;8.65;;;6.03;;
52542;SDS011;38449;52.696;6.186;2022-10-22T00:43:54;9.73;;;6.18;;
52542;SDS011;38449;52.696;6.186;2022-10-22T00:46:28;8.40;;;6.05;;
52542;SDS011;38449;52.696;6.186;2022-10-22T00:48:54;9.82;;;5.85;;
52542;SDS011;38449;52.696;6.186;2022-10-22T00:51:23;11.13;;;6.53;;
52542;SDS011;38449;52.696;6.186;2022-10-22T00:53:52;11.25;;;6.32;;
52542;SDS011;38449;52.696;6.186;2022-10-22T00:56:20;9.95;;;6.57;;
52542;SDS011;38449;52.696;6.186;2022-10-22T00:58:48;9.00;;;6.30;;
52542;SDS011;38449;52.696;6.186;2022-10-22T01:01:26;11.02;;;6.72;;
52542;SDS011;38449;52.696;6.186;2022-10-22T01:03:55;9.88;;;6.40;;
52542;SDS011;38449;52.696;6.186;2022-10-22T01:06:25;8.27;;;6.30;;
52542;SDS011;38449;52.696;6.186;2022-10-22T01:14:16;10.52;;;6.57;;
52542;SDS011;38449;52.696;6.186;2022-10-22T01:22:42;16.08;;;6.90;;
52542;SDS011;38449;52.696;6.186;2022-10-22T01:25:29;11.27;;;7.40;;
52542;SDS011;38449;52.696;6.186;2022-10-22T01:30:42;10.60;;;6.47;;
52542;SDS011;38449;52.696;6.186;2022-10-22T01:33:09;10.48;;;7.13;;
52542;SDS011;38449;52.696;6.186;2022-10-22T01:35:39;11.88;;;7.50;;
52542;SDS011;38449;52.696;6.186;2022-10-22T01:38:08;10.98;;;7.20;;
52542;SDS011;38449;52.696;6.186;2022-10-22T01:40:36;11.18;;;8.38;;
52542;SDS011;38449;52.696;6.186;2022-10-22T01:43:04;12.65;;;8.02;;
52542;SDS011;38449;52.696;6.186;2022-10-22T01:45:41;12.45;;;7.60;;
52542;SDS011;38449;52.696;6.186;2022-10-22T01:51:06;11.77;;;7.10;;
52542;SDS011;38449;52.696;6.186;2022-10-22T02:02:02;11.93;;;7.47;;
52542;SDS011;38449;52.696;6.186;2022-10-22T02:04:45;12.35;;;7.35;;
52542;SDS011;38449;52.696;6.186;2022-10-22T02:07:18;13.05;;;7.63;;
52542;SDS011;38449;52.696;6.186;2022-10-22T02:09:46;10.63;;;7.18;;
52542;SDS011;38449;52.696;6.186;2022-10-22T02:12:14;13.27;;;7.70;;
52542;SDS011;38449;52.696;6.186;2022-10-22T02:14:43;11.30;;;7.07;;
52542;SDS011;38449;52.696;6.186;2022-10-22T02:17:15;11.43;;;6.90;;
52542;SDS011;38449;52.696;6.186;2022-10-22T02:22:21;15.73;;;8.00;;
52542;SDS011;38449;52.696;6.186;2022-10-22T02:24:48;11.85;;;7.78;;
52542;SDS011;38449;52.696;6.186;2022-10-22T02:32:35;10.60;;;6.57;;
52542;SDS011;38449;52.696;6.186;2022-10-22T02:35:14;14.60;;;7.63;;
52542;SDS011;38449;52.696;6.186;2022-10-22T02:37:42;11.23;;;7.15;;
52542;SDS011;38449;52.696;6.186;2022-10-22T02:40:09;11.30;;;7.40;;
52542;SDS011;38449;52.696;6.186;2022-10-22T02:42:35;11.75;;;7.95;;
52542;SDS011;38449;52.696;6.186;2022-10-22T02:45:03;12.23;;;7.05;;
52542;SDS011;38449;52.696;6.186;2022-10-22T02:47:29;12.48;;;7.07;;
52542;SDS011;38449;52.696;6.186;2022-10-22T02:49:54;11.68;;;7.63;;
52542;SDS011;38449;52.696;6.186;2022-10-22T02:52:20;10.98;;;6.90;;
52542;SDS011;38449;52.696;6.186;2022-10-22T02:54:45;12.43;;;7.68;;
52542;SDS011;38449;52.696;6.186;2022-10-22T02:57:11;10.20;;;7.18;;
52542;SDS011;38449;52.696;6.186;2022-10-22T02:59:37;9.55;;;7.32;;
52542;SDS011;38449;52.696;6.186;2022-10-22T03:02:02;12.75;;;7.80;;
52542;SDS011;38449;52.696;6.186;2022-10-22T03:04:28;9.65;;;7.95;;
52542;SDS011;38449;52.696;6.186;2022-10-22T03:06:54;12.00;;;8.10;;
52542;SDS011;38449;52.696;6.186;2022-10-22T03:09:19;10.68;;;8.20;;
52542;SDS011;38449;52.696;6.186;2022-10-22T03:11:45;10.77;;;8.07;;
52542;SDS011;38449;52.696;6.186;2022-10-22T03:14:11;12.10;;;7.57;;
52542;SDS011;38449;52.696;6.186;2022-10-22T03:16:36;10.68;;;7.78;;
52542;SDS011;38449;52.696;6.186;2022-10-22T03:19:02;10.73;;;7.75;;
52542;SDS011;38449;52.696;6.186;2022-10-22T03:24:02;12.05;;;8.35;;
52542;SDS011;38449;52.696;6.186;2022-10-22T03:26:37;11.57;;;8.35;;
52542;SDS011;38449;52.696;6.186;2022-10-22T03:29:05;14.98;;;8.70;;
52542;SDS011;38449;52.696;6.186;2022-10-22T03:31:31;17.13;;;9.10;;
52542;SDS011;38449;52.696;6.186;2022-10-22T03:33:56;12.38;;;9.20;;
52542;SDS011;38449;52.696;6.186;2022-10-22T03:36:22;14.02;;;8.63;;
52542;SDS011;38449;52.696;6.186;2022-10-22T03:38:47;14.05;;;8.68;;
52542;SDS011;38449;52.696;6.186;2022-10-22T03:41:13;13.93;;;8.70;;
52542;SDS011;38449;52.696;6.186;2022-10-22T03:43:39;12.40;;;8.65;;
52542;SDS011;38449;52.696;6.186;2022-10-22T03:46:05;13.48;;;8.45;;
52542;SDS011;38449;52.696;6.186;2022-10-22T03:48:31;12.98;;;8.95;;
52542;SDS011;38449;52.696;6.186;2022-10-22T03:50:56;14.00;;;8.88;;
52542;SDS011;38449;52.696;6.186;2022-10-22T03:53:22;12.20;;;7.93;;
52542;SDS011;38449;52.696;6.186;2022-10-22T03:55:48;12.82;;;8.55;;
52542;SDS011;38449;52.696;6.186;2022-10-22T03:58:13;11.82;;;8.57;;
52542;SDS011;38449;52.696;6.186;2022-10-22T04:00:39;14.45;;;9.30;;
52542;SDS011;38449;52.696;6.186;2022-10-22T04:03:05;15.15;;;9.38;;
52542;SDS011;38449;52.696;6.186;2022-10-22T04:05:31;11.30;;;8.68;;
52542;SDS011;38449;52.696;6.186;2022-10-22T04:07:58;12.70;;;9.50;;
52542;SDS011;38449;52.696;6.186;2022-10-22T04:10:24;13.23;;;9.27;;
52542;SDS011;38449;52.696;6.186;2022-10-22T04:12:49;14.73;;;9.20;;
52542;SDS011;38449;52.696;6.186;2022-10-22T04:15:16;16.17;;;9.50;;
52542;SDS011;38449;52.696;6.186;2022-10-22T04:17:42;12.30;;;8.95;;
52542;SDS011;38449;52.696;6.186;2022-10-22T04:20:08;14.23;;;9.60;;
52542;SDS011;38449;52.696;6.186;2022-10-22T04:22:34;12.75;;;9.45;;
52542;SDS011;38449;52.696;6.186;2022-10-22T04:25:00;13.25;;;9.13;;
52542;SDS011;38449;52.696;6.186;2022-10-22T04:27:30;12.85;;;9.55;;
52542;SDS011;38449;52.696;6.186;2022-10-22T04:29:56;14.93;;;9.70;;
52542;SDS011;38449;52.696;6.186;2022-10-22T04:32:22;11.23;;;8.82;;
52542;SDS011;38449;52.696;6.186;2022-10-22T04:34:48;14.32;;;9.73;;
52542;SDS011;38449;52.696;6.186;2022-10-22T04:37:14;12.65;;;9.82;;
52542;SDS011;38449;52.696;6.186;2022-10-22T04:39:39;13.00;;;9.32;;
52542;SDS011;38449;52.696;6.186;2022-10-22T04:42:05;13.85;;;9.30;;
52542;SDS011;38449;52.696;6.186;2022-10-22T04:44:31;12.88;;;9.05;;
52542;SDS011;38449;52.696;6.186;2022-10-22T04:46:56;15.40;;;8.88;;
52542;SDS011;38449;52.696;6.186;2022-10-22T04:49:22;15.25;;;9.88;;
52542;SDS011;38449;52.696;6.186;2022-10-22T04:51:47;14.57;;;8.98;;
52542;SDS011;38449;52.696;6.186;2022-10-22T04:54:14;13.73;;;9.30;;
52542;SDS011;38449;52.696;6.186;2022-10-22T04:56:39;13.30;;;9.13;;
52542;SDS011;38449;52.696;6.186;2022-10-22T04:59:06;12.70;;;9.25;;
52542;SDS011;38449;52.696;6.186;2022-10-22T05:01:37;12.63;;;8.68;;
52542;SDS011;38449;52.696;6.186;2022-10-22T05:04:05;12.25;;;8.82;;
52542;SDS011;38449;52.696;6.186;2022-10-22T05:06:32;11.48;;;8.70;;
52542;SDS011;38449;52.696;6.186;2022-10-22T05:09:00;16.70;;;9.40;;
52542;SDS011;38449;52.696;6.186;2022-10-22T05:11:28;12.80;;;8.63;;
52542;SDS011;38449;52.696;6.186;2022-10-22T05:13:56;14.52;;;8.55;;
52542;SDS011;38449;52.696;6.186;2022-10-22T05:16:22;14.15;;;8.85;;
52542;SDS011;38449;52.696;6.186;2022-10-22T05:18:49;13.15;;;8.40;;
52542;SDS011;38449;52.696;6.186;2022-10-22T05:21:16;10.63;;;8.30;;
52542;SDS011;38449;52.696;6.186;2022-10-22T05:23:43;13.20;;;8.50;;
52542;SDS011;38449;52.696;6.186;2022-10-22T05:26:10;12.93;;;8.55;;
52542;SDS011;38449;52.696;6.186;2022-10-22T05:28:37;12.85;;;8.18;;
52542;SDS011;38449;52.696;6.186;2022-10-22T05:31:04;11.43;;;8.35;;
52542;SDS011;38449;52.696;6.186;2022-10-22T05:33:30;11.85;;;8.27;;
52542;SDS011;38449;52.696;6.186;2022-10-22T05:35:57;12.52;;;8.20;;
52542;SDS011;38449;52.696;6.186;2022-10-22T05:38:23;14.50;;;8.02;;
52542;SDS011;38449;52.696;6.186;2022-10-22T05:41:02;12.57;;;8.15;;
52542;SDS011;38449;52.696;6.186;2022-10-22T05:43:33;11.18;;;7.68;;
52542;SDS011;38449;52.696;6.186;2022-10-22T05:46:06;14.02;;;8.27;;
52542;SDS011;38449;52.696;6.186;2022-10-22T05:48:36;11.55;;;8.23;;
52542;SDS011;38449;52.696;6.186;2022-10-22T05:51:03;13.45;;;7.95;;
52542;SDS011;38449;52.696;6.186;2022-10-22T05:53:30;13.38;;;7.78;;
52542;SDS011;38449;52.696;6.186;2022-10-22T05:56:04;15.68;;;8.63;;
52542;SDS011;38449;52.696;6.186;2022-10-22T05:58:32;16.13;;;8.05;;
52542;SDS011;38449;52.696;6.186;2022-10-22T06:01:02;13.43;;;8.10;;
52542;SDS011;38449;52.696;6.186;2022-10-22T06:03:32;14.70;;;7.97;;
52542;SDS011;38449;52.696;6.186;2022-10-22T06:05:59;14.15;;;8.02;;
52542;SDS011;38449;52.696;6.186;2022-10-22T06:08:25;13.43;;;7.40;;
52542;SDS011;38449;52.696;6.186;2022-10-22T06:10:52;12.43;;;7.60;;
52542;SDS011;38449;52.696;6.186;2022-10-22T06:13:18;13.88;;;7.88;;
52542;SDS011;38449;52.696;6.186;2022-10-22T06:15:43;13.88;;;8.07;;
52542;SDS011;38449;52.696;6.186;2022-10-22T06:18:09;13.25;;;7.68;;
52542;SDS011;38449;52.696;6.186;2022-10-22T06:20:35;11.73;;;8.02;;
52542;SDS011;38449;52.696;6.186;2022-10-22T06:23:00;13.77;;;8.05;;
52542;SDS011;38449;52.696;6.186;2022-10-22T06:25:26;11.73;;;7.30;;
52542;SDS011;38449;52.696;6.186;2022-10-22T06:27:51;14.35;;;8.25;;
52542;SDS011;38449;52.696;6.186;2022-10-22T06:30:17;15.27;;;7.82;;
52542;SDS011;38449;52.696;6.186;2022-10-22T06:32:43;14.52;;;7.93;;
52542;SDS011;38449;52.696;6.186;2022-10-22T06:35:08;15.32;;;7.80;;
52542;SDS011;38449;52.696;6.186;2022-10-22T06:37:34;14.30;;;7.85;;
52542;SDS011;38449;52.696;6.186;2022-10-22T06:39:59;12.48;;;7.50;;
52542;SDS011;38449;52.696;6.186;2022-10-22T06:42:26;16.73;;;8.50;;
52542;SDS011;38449;52.696;6.186;2022-10-22T06:44:52;13.63;;;8.15;;
52542;SDS011;38449;52.696;6.186;2022-10-22T06:47:18;13.93;;;8.20;;
52542;SDS011;38449;52.696;6.186;2022-10-22T06:49:43;13.10;;;7.20;;
52542;SDS011;38449;52.696;6.186;2022-10-22T06:52:09;14.25;;;8.10;;
52542;SDS011;38449;52.696;6.186;2022-10-22T06:54:34;11.23;;;7.50;;
52542;SDS011;38449;52.696;6.186;2022-10-22T06:57:00;13.35;;;7.47;;
52542;SDS011;38449;52.696;6.186;2022-10-22T06:59:26;10.60;;;7.30;;
52542;SDS011;38449;52.696;6.186;2022-10-22T07:01:51;14.10;;;8.15;;
52542;SDS011;38449;52.696;6.186;2022-10-22T07:04:17;12.23;;;7.50;;
52542;SDS011;38449;52.696;6.186;2022-10-22T07:06:42;13.63;;;7.63;;
52542;SDS011;38449;52.696;6.186;2022-10-22T07:09:08;12.27;;;7.25;;
52542;SDS011;38449;52.696;6.186;2022-10-22T07:11:41;13.23;;;7.43;;
52542;SDS011;38449;52.696;6.186;2022-10-22T07:14:08;12.07;;;6.75;;
52542;SDS011;38449;52.696;6.186;2022-10-22T07:16:34;11.55;;;7.15;;
52542;SDS011;38449;52.696;6.186;2022-10-22T07:19:00;10.40;;;6.95;;
52542;SDS011;38449;52.696;6.186;2022-10-22T07:21:27;10.00;;;6.97;;
52542;SDS011;38449;52.696;6.186;2022-10-22T07:23:53;11.73;;;7.05;;
52542;SDS011;38449;52.696;6.186;2022-10-22T07:26:19;13.25;;;7.00;;
52542;SDS011;38449;52.696;6.186;2022-10-22T07:28:45;12.55;;;6.80;;
52542;SDS011;38449;52.696;6.186;2022-10-22T07:31:12;14.93;;;7.10;;
52542;SDS011;38449;52.696;6.186;2022-10-22T07:33:38;11.98;;;6.78;;
52542;SDS011;38449;52.696;6.186;2022-10-22T07:36:05;11.85;;;6.82;;
52542;SDS011;38449;52.696;6.186;2022-10-22T07:38:33;12.50;;;7.07;;
52542;SDS011;38449;52.696;6.186;2022-10-22T07:40:59;11.00;;;6.45;;
52542;SDS011;38449;52.696;6.186;2022-10-22T07:43:25;12.35;;;7.03;;
52542;SDS011;38449;52.696;6.186;2022-10-22T07:45:51;13.77;;;6.72;;
52542;SDS011;38449;52.696;6.186;2022-10-22T07:48:19;13.13;;;6.68;;
52542;SDS011;38449;52.696;6.186;2022-10-22T07:50:45;12.23;;;7.00;;
52542;SDS011;38449;52.696;6.186;2022-10-22T07:53:14;13.02;;;6.55;;
52542;SDS011;38449;52.696;6.186;2022-10-22T07:55:40;12.52;;;6.30;;
52542;SDS011;38449;52.696;6.186;2022-10-22T07:58:05;13.35;;;6.40;;
52542;SDS011;38449;52.696;6.186;2022-10-22T08:00:31;12.43;;;5.90;;
52542;SDS011;38449;52.696;6.186;2022-10-22T08:02:56;10.50;;;6.25;;
52542;SDS011;38449;52.696;6.186;2022-10-22T08:05:22;13.00;;;6.72;;
52542;SDS011;38449;52.696;6.186;2022-10-22T08:07:48;9.57;;;5.53;;
52542;SDS011;38449;52.696;6.186;2022-10-22T08:10:13;12.35;;;5.93;;
52542;SDS011;38449;52.696;6.186;2022-10-22T08:12:39;14.25;;;5.70;;
52542;SDS011;38449;52.696;6.186;2022-10-22T08:15:05;12.32;;;5.32;;
52542;SDS011;38449;52.696;6.186;2022-10-22T08:17:32;11.85;;;5.75;;
52542;SDS011;38449;52.696;6.186;2022-10-22T08:19:57;12.60;;;5.10;;
52542;SDS011;38449;52.696;6.186;2022-10-22T08:22:23;12.02;;;5.00;;
52542;SDS011;38449;52.696;6.186;2022-10-22T08:24:49;10.80;;;4.97;;
52542;SDS011;38449;52.696;6.186;2022-10-22T08:27:14;11.07;;;5.68;;
52542;SDS011;38449;52.696;6.186;2022-10-22T08:29:40;10.65;;;4.93;;
52542;SDS011;38449;52.696;6.186;2022-10-22T08:32:06;10.35;;;4.55;;
52542;SDS011;38449;52.696;6.186;2022-10-22T08:34:31;10.60;;;4.40;;
52542;SDS011;38449;52.696;6.186;2022-10-22T08:36:57;10.73;;;4.07;;
52542;SDS011;38449;52.696;6.186;2022-10-22T08:39:22;9.48;;;4.32;;
52542;SDS011;38449;52.696;6.186;2022-10-22T08:42:00;11.25;;;4.32;;
52542;SDS011;38449;52.696;6.186;2022-10-22T08:47:16;11.70;;;4.32;;
52542;SDS011;38449;52.696;6.186;2022-10-22T08:49:48;13.55;;;4.63;;
52542;SDS011;38449;52.696;6.186;2022-10-22T08:52:15;9.57;;;4.82;;
52542;SDS011;38449;52.696;6.186;2022-10-22T08:54:46;11.23;;;4.60;;
52542;SDS011;38449;52.696;6.186;2022-10-22T09:00:34;14.15;;;4.65;;
52542;SDS011;38449;52.696;6.186;2022-10-22T09:03:11;12.82;;;4.70;;
52542;SDS011;38449;52.696;6.186;2022-10-22T09:06:02;10.50;;;3.45;;
52542;SDS011;38449;52.696;6.186;2022-10-22T09:08:35;9.07;;;4.05;;
52542;SDS011;38449;52.696;6.186;2022-10-22T09:11:11;14.63;;;4.32;;
52542;SDS011;38449;52.696;6.186;2022-10-22T09:13:57;11.75;;;3.90;;
52542;SDS011;38449;52.696;6.186;2022-10-22T09:19:34;11.48;;;4.10;;
52542;SDS011;38449;52.696;6.186;2022-10-22T09:22:23;14.43;;;3.83;;
52542;SDS011;38449;52.696;6.186;2022-10-22T09:25:21;11.30;;;3.60;;
52542;SDS011;38449;52.696;6.186;2022-10-22T09:27:50;12.07;;;3.88;;
52542;SDS011;38449;52.696;6.186;2022-10-22T09:30:23;12.25;;;3.75;;
52542;SDS011;38449;52.696;6.186;2022-10-22T09:32:54;10.73;;;3.50;;
52542;SDS011;38449;52.696;6.186;2022-10-22T09:35:25;9.82;;;3.60;;
52542;SDS011;38449;52.696;6.186;2022-10-22T09:37:53;9.60;;;3.33;;
52542;SDS011;38449;52.696;6.186;2022-10-22T09:40:20;11.50;;;3.33;;
52542;SDS011;38449;52.696;6.186;2022-10-22T09:42:47;10.95;;;3.75;;
52542;SDS011;38449;52.696;6.186;2022-10-22T09:45:23;9.07;;;3.50;;
52542;SDS011;38449;52.696;6.186;2022-10-22T09:47:50;10.98;;;3.83;;
52542;SDS011;38449;52.696;6.186;2022-10-22T09:50:40;9.77;;;4.43;;
52542;SDS011;38449;52.696;6.186;2022-10-22T09:55:56;10.57;;;4.18;;
52542;SDS011;38449;52.696;6.186;2022-10-22T09:58:23;10.88;;;4.72;;
52542;SDS011;38449;52.696;6.186;2022-10-22T10:00:51;8.52;;;4.05;;
52542;SDS011;38449;52.696;6.186;2022-10-22T10:03:26;10.73;;;4.55;;
52542;SDS011;38449;52.696;6.186;2022-10-22T10:05:54;11.48;;;4.00;;
52542;SDS011;38449;52.696;6.186;2022-10-22T10:08:22;12.75;;;4.63;;
52542;SDS011;38449;52.696;6.186;2022-10-22T10:16:39;12.45;;;5.00;;
52542;SDS011;38449;52.696;6.186;2022-10-22T10:19:29;11.98;;;4.88;;
52542;SDS011;38449;52.696;6.186;2022-10-22T10:22:43;11.30;;;5.10;;
52542;SDS011;38449;52.696;6.186;2022-10-22T10:27:42;10.73;;;5.07;;
52542;SDS011;38449;52.696;6.186;2022-10-22T10:30:18;11.77;;;5.10;;
52542;SDS011;38449;52.696;6.186;2022-10-22T10:35:44;15.05;;;5.07;;
52542;SDS011;38449;52.696;6.186;2022-10-22T10:38:22;16.02;;;5.13;;
52542;SDS011;38449;52.696;6.186;2022-10-22T10:51:21;12.23;;;4.95;;
52542;SDS011;38449;52.696;6.186;2022-10-22T10:56:56;11.73;;;4.65;;
52542;SDS011;38449;52.696;6.186;2022-10-22T10:59:41;11.25;;;4.55;;
52542;SDS011;38449;52.696;6.186;2022-10-22T11:05:21;12.77;;;4.63;;
52542;SDS011;38449;52.696;6.186;2022-10-22T11:07:59;12.25;;;4.80;;
52542;SDS011;38449;52.696;6.186;2022-10-22T11:16:22;11.95;;;4.10;;
52542;SDS011;38449;52.696;6.186;2022-10-22T11:19:06;11.75;;;4.60;;
52542;SDS011;38449;52.696;6.186;2022-10-22T11:21:48;10.95;;;4.78;;
52542;SDS011;38449;52.696;6.186;2022-10-22T11:24:27;10.90;;;4.57;;
52542;SDS011;38449;52.696;6.186;2022-10-22T11:27:01;10.90;;;4.05;;
52542;SDS011;38449;52.696;6.186;2022-10-22T11:29:33;12.07;;;3.95;;
52542;SDS011;38449;52.696;6.186;2022-10-22T11:32:05;11.63;;;3.75;;
52542;SDS011;38449;52.696;6.186;2022-10-22T11:34:44;10.27;;;4.20;;
52542;SDS011;38449;52.696;6.186;2022-10-22T11:37:14;8.63;;;3.55;;
52542;SDS011;38449;52.696;6.186;2022-10-22T11:39:46;10.98;;;3.53;;
52542;SDS011;38449;52.696;6.186;2022-10-22T11:42:19;6.80;;;3.17;;
52542;SDS011;38449;52.696;6.186;2022-10-22T11:45:04;11.50;;;3.55;;
52542;SDS011;38449;52.696;6.186;2022-10-22T11:50:21;8.57;;;2.80;;
52542;SDS011;38449;52.696;6.186;2022-10-22T11:53:03;7.72;;;3.00;;
52542;SDS011;38449;52.696;6.186;2022-10-22T12:14:22;9.30;;;3.00;;
52542;SDS011;38449;52.696;6.186;2022-10-22T12:17:06;9.90;;;2.97;;
52542;SDS011;38449;52.696;6.186;2022-10-22T12:19:40;6.63;;;2.65;;
52542;SDS011;38449;52.696;6.186;2022-10-22T12:25:00;9.30;;;3.10;;
52542;SDS011;38449;52.696;6.186;2022-10-22T12:27:34;8.68;;;2.75;;
52542;SDS011;38449;52.696;6.186;2022-10-22T12:30:02;9.43;;;2.92;;
52542;SDS011;38449;52.696;6.186;2022-10-22T12:32:46;9.63;;;2.90;;
52542;SDS011;38449;52.696;6.186;2022-10-22T12:35:16;8.73;;;2.95;;
52542;SDS011;38449;52.696;6.186;2022-10-22T12:37:47;10.43;;;3.15;;
52542;SDS011;38449;52.696;6.186;2022-10-22T12:40:25;7.35;;;2.58;;
52542;SDS011;38449;52.696;6.186;2022-10-22T12:42:56;11.32;;;3.50;;
52542;SDS011;38449;52.696;6.186;2022-10-22T12:45:25;7.85;;;2.58;;
52542;SDS011;38449;52.696;6.186;2022-10-22T12:47:57;11.05;;;3.00;;
52542;SDS011;38449;52.696;6.186;2022-10-22T12:50:33;7.35;;;2.90;;
52542;SDS011;38449;52.696;6.186;2022-10-22T12:53:11;11.63;;;2.47;;
52542;SDS011;38449;52.696;6.186;2022-10-22T12:55:44;9.73;;;2.58;;
52542;SDS011;38449;52.696;6.186;2022-10-22T12:58:15;6.95;;;2.53;;
52542;SDS011;38449;52.696;6.186;2022-10-22T13:00:44;9.00;;;3.05;;
52542;SDS011;38449;52.696;6.186;2022-10-22T13:03:15;10.88;;;3.38;;
52542;SDS011;38449;52.696;6.186;2022-10-22T13:05:54;10.55;;;3.50;;
52542;SDS011;38449;52.696;6.186;2022-10-22T13:08:20;10.15;;;3.00;;
52542;SDS011;38449;52.696;6.186;2022-10-22T13:10:49;11.80;;;3.72;;
52542;SDS011;38449;52.696;6.186;2022-10-22T13:13:29;11.15;;;3.00;;
52542;SDS011;38449;52.696;6.186;2022-10-22T13:18:42;8.10;;;2.83;;
52542;SDS011;38449;52.696;6.186;2022-10-22T13:21:19;8.15;;;3.75;;
52542;SDS011;38449;52.696;6.186;2022-10-22T13:24:22;9.38;;;3.30;;
52542;SDS011;38449;52.696;6.186;2022-10-22T13:26:49;9.65;;;3.80;;
52542;SDS011;38449;52.696;6.186;2022-10-22T13:29:17;9.05;;;3.70;;
52542;SDS011;38449;52.696;6.186;2022-10-22T13:31:46;16.70;;;3.20;;
52542;SDS011;38449;52.696;6.186;2022-10-22T13:34:18;12.13;;;3.72;;
52542;SDS011;38449;52.696;6.186;2022-10-22T13:36:45;13.00;;;4.00;;
52542;SDS011;38449;52.696;6.186;2022-10-22T13:39:15;8.45;;;3.05;;
52542;SDS011;38449;52.696;6.186;2022-10-22T13:41:46;10.80;;;3.17;;
52542;SDS011;38449;52.696;6.186;2022-10-22T13:44:14;10.18;;;3.20;;
52542;SDS011;38449;52.696;6.186;2022-10-22T13:46:40;8.15;;;3.03;;
52542;SDS011;38449;52.696;6.186;2022-10-22T13:49:16;11.23;;;3.28;;
52542;SDS011;38449;52.696;6.186;2022-10-22T13:51:44;9.32;;;2.90;;
52542;SDS011;38449;52.696;6.186;2022-10-22T13:54:15;11.55;;;2.83;;
52542;SDS011;38449;52.696;6.186;2022-10-22T13:56:43;14.88;;;3.22;;
52542;SDS011;38449;52.696;6.186;2022-10-22T13:59:08;12.30;;;2.63;;
52542;SDS011;38449;52.696;6.186;2022-10-22T14:01:35;10.75;;;2.63;;
52542;SDS011;38449;52.696;6.186;2022-10-22T14:04:02;13.75;;;3.00;;
52542;SDS011;38449;52.696;6.186;2022-10-22T14:06:29;11.75;;;3.30;;
52542;SDS011;38449;52.696;6.186;2022-10-22T14:08:57;15.40;;;3.30;;
52542;SDS011;38449;52.696;6.186;2022-10-22T14:11:28;9.00;;;2.55;;
52542;SDS011;38449;52.696;6.186;2022-10-22T14:13:56;10.68;;;2.55;;
52542;SDS011;38449;52.696;6.186;2022-10-22T14:16:23;12.30;;;2.50;;
52542;SDS011;38449;52.696;6.186;2022-10-22T14:18:51;10.52;;;2.80;;
52542;SDS011;38449;52.696;6.186;2022-10-22T14:21:17;11.32;;;2.45;;
52542;SDS011;38449;52.696;6.186;2022-10-22T14:23:44;10.93;;;2.58;;
52542;SDS011;38449;52.696;6.186;2022-10-22T14:26:17;14.27;;;3.17;;
52542;SDS011;38449;52.696;6.186;2022-10-22T14:28:49;11.68;;;3.17;;
52542;SDS011;38449;52.696;6.186;2022-10-22T14:31:15;11.40;;;3.10;;
52542;SDS011;38449;52.696;6.186;2022-10-22T14:33:41;14.63;;;3.08;;
52542;SDS011;38449;52.696;6.186;2022-10-22T14:36:08;13.05;;;2.83;;
52542;SDS011;38449;52.696;6.186;2022-10-22T14:38:36;12.98;;;3.28;;
52542;SDS011;38449;52.696;6.186;2022-10-22T14:41:02;13.82;;;3.15;;
52542;SDS011;38449;52.696;6.186;2022-10-22T14:43:36;13.18;;;3.08;;
52542;SDS011;38449;52.696;6.186;2022-10-22T14:46:01;13.27;;;3.15;;
52542;SDS011;38449;52.696;6.186;2022-10-22T14:48:27;10.77;;;2.83;;
52542;SDS011;38449;52.696;6.186;2022-10-22T14:50:53;12.88;;;2.60;;
52542;SDS011;38449;52.696;6.186;2022-10-22T14:53:18;16.23;;;3.03;;
52542;SDS011;38449;52.696;6.186;2022-10-22T14:55:44;14.95;;;2.72;;
52542;SDS011;38449;52.696;6.186;2022-10-22T14:58:11;12.18;;;2.95;;
52542;SDS011;38449;52.696;6.186;2022-10-22T15:00:39;11.50;;;2.55;;
52542;SDS011;38449;52.696;6.186;2022-10-22T15:03:05;10.35;;;2.55;;
52542;SDS011;38449;52.696;6.186;2022-10-22T15:05:30;11.52;;;2.75;;
52542;SDS011;38449;52.696;6.186;2022-10-22T15:07:56;9.43;;;2.20;;
52542;SDS011;38449;52.696;6.186;2022-10-22T15:10:23;10.90;;;2.30;;
52542;SDS011;38449;52.696;6.186;2022-10-22T15:12:49;12.35;;;3.30;;
52542;SDS011;38449;52.696;6.186;2022-10-22T15:15:15;12.93;;;2.53;;
52542;SDS011;38449;52.696;6.186;2022-10-22T15:17:40;11.20;;;3.08;;
52542;SDS011;38449;52.696;6.186;2022-10-22T15:20:06;14.95;;;3.75;;
52542;SDS011;38449;52.696;6.186;2022-10-22T15:22:32;10.95;;;2.50;;
52542;SDS011;38449;52.696;6.186;2022-10-22T15:25:02;7.05;;;2.30;;
52542;SDS011;38449;52.696;6.186;2022-10-22T15:27:29;13.07;;;3.15;;
52542;SDS011;38449;52.696;6.186;2022-10-22T15:29:55;9.55;;;2.65;;
52542;SDS011;38449;52.696;6.186;2022-10-22T15:32:23;9.98;;;3.05;;
52542;SDS011;38449;52.696;6.186;2022-10-22T15:34:53;9.43;;;2.80;;
52542;SDS011;38449;52.696;6.186;2022-10-22T15:37:19;9.45;;;2.50;;
52542;SDS011;38449;52.696;6.186;2022-10-22T15:39:45;11.32;;;2.85;;
52542;SDS011;38449;52.696;6.186;2022-10-22T15:42:11;9.52;;;2.83;;
52542;SDS011;38449;52.696;6.186;2022-10-22T15:44:38;16.83;;;6.70;;
52542;SDS011;38449;52.696;6.186;2022-10-22T15:47:05;14.90;;;5.13;;
52542;SDS011;38449;52.696;6.186;2022-10-22T15:49:32;9.77;;;2.63;;
52542;SDS011;38449;52.696;6.186;2022-10-22T15:51:59;13.85;;;3.22;;
52542;SDS011;38449;52.696;6.186;2022-10-22T15:54:26;12.27;;;3.22;;
52542;SDS011;38449;52.696;6.186;2022-10-22T15:56:56;11.15;;;4.20;;
52542;SDS011;38449;52.696;6.186;2022-10-22T15:59:26;13.35;;;3.60;;
52542;SDS011;38449;52.696;6.186;2022-10-22T16:01:52;16.00;;;3.40;;
52542;SDS011;38449;52.696;6.186;2022-10-22T16:04:17;8.63;;;3.20;;
52542;SDS011;38449;52.696;6.186;2022-10-22T16:06:44;15.20;;;3.55;;
52542;SDS011;38449;52.696;6.186;2022-10-22T16:09:17;12.27;;;3.65;;
52542;SDS011;38449;52.696;6.186;2022-10-22T16:11:44;11.35;;;3.30;;
52542;SDS011;38449;52.696;6.186;2022-10-22T16:14:12;13.02;;;3.78;;
52542;SDS011;38449;52.696;6.186;2022-10-22T16:16:41;7.95;;;2.72;;
52542;SDS011;38449;52.696;6.186;2022-10-22T16:19:09;14.50;;;3.60;;
52542;SDS011;38449;52.696;6.186;2022-10-22T16:21:36;15.70;;;4.32;;
52542;SDS011;38449;52.696;6.186;2022-10-22T16:24:02;11.13;;;2.75;;
52542;SDS011;38449;52.696;6.186;2022-10-22T16:26:28;13.50;;;3.55;;
52542;SDS011;38449;52.696;6.186;2022-10-22T16:28:53;10.63;;;3.15;;
52542;SDS011;38449;52.696;6.186;2022-10-22T16:31:19;16.42;;;3.40;;
52542;SDS011;38449;52.696;6.186;2022-10-22T16:33:45;9.07;;;3.05;;
52542;SDS011;38449;52.696;6.186;2022-10-22T16:36:11;10.27;;;3.40;;
52542;SDS011;38449;52.696;6.186;2022-10-22T16:38:39;15.35;;;3.72;;